Overview Statistics Trail Chart Weather Telemetry Raw packets
 

This is the latest recevied weather packets stored in our database for station/object DC5DM-13. If no packets are shown the sender has not sent any weather packets the latest 10 day(s).

<< 1 2 3 4 5 6 7 >>
Time Temp. Humidity Pressure Rain* Wind** Luminosity Snow
1788537377 23.89° C 70% 1012.5 hPa 0 mm - - -
1788536747 23.89° C 70% 1012.5 hPa 0 mm - - -
1788536176 24.44° C 69% 1012.6 hPa 0 mm - - -
1788535546 25° C 68% 1012.6 hPa 0 mm - - -
1788534976 25° C 69% 1012.7 hPa 0 mm - - -
1788534346 23.33° C 73% 1013.1 hPa 0 mm - - -
1788533776 23.89° C 73% 1012.9 hPa 0 mm - - -
1788533145 23.33° C 75% 1012.9 hPa 0 mm - - -
1788532576 23.89° C 75% 1012.9 hPa 0 mm - - -
1788531946 23.33° C 76% 1013.1 hPa 0 mm - - -
1788531376 23.89° C 74% 1013.1 hPa 0 mm - - -
1788530746 23.33° C 76% 1013 hPa 0 mm - - -
1788530177 23.33° C 75% 1013 hPa 0 mm - - -
1788529545 23.33° C 76% 1012.9 hPa 0 mm - - -
1788528976 23.33° C 75% 1012.8 hPa 0 mm - - -
1788528346 23.89° C 75% 1012.7 hPa 0 mm - - -
1788527776 23.89° C 76% 1012.8 hPa 0 mm - - -
1788527145 23.89° C 76% 1012.8 hPa 0 mm - - -
1788526577 23.33° C 77% 1012.9 hPa 0 mm - - -
1788525946 23.89° C 76% 1013 hPa 0 mm - - -
1788525376 23.89° C 76% 1013 hPa 0 mm - - -
1788524746 23.33° C 78% 1013.2 hPa 0 mm - - -
1788524176 23.33° C 77% 1013.2 hPa 0 mm - - -
1788523546 23.33° C 76% 1013.2 hPa 0 mm - - -
1788522976 23.33° C 76% 1013.1 hPa 0 mm - - -

* Rain latest hour (hover to see other rain measurements)
** Current wind speed in m/s (hover to see current wind gust speed)